createdAt,value
2022-12-15T00:02:04.693Z,100420.69
2022-12-15T00:05:26.479Z,100417.16
2022-12-15T00:08:47.554Z,100416.50
2022-12-15T00:12:09.550Z,100421.94
2022-12-15T00:15:30.457Z,100428.22
2022-12-15T00:18:51.469Z,100438.88
2022-12-15T00:22:12.611Z,100431.56
2022-12-15T00:25:33.829Z,100436.91
2022-12-15T00:28:56.190Z,100437.78
2022-12-15T00:32:16.955Z,100445.69
2022-12-15T00:35:38.376Z,100445.13
2022-12-15T00:38:43.270Z,100444.47
2022-12-15T00:41:46.814Z,100452.38
2022-12-15T00:44:52.250Z,100442.34
2022-12-15T00:47:54.902Z,100443.03
2022-12-15T00:50:58.468Z,100447.56
2022-12-15T00:54:19.206Z,100438.31
2022-12-15T00:57:40.214Z,100438.53
2022-12-15T01:01:02.450Z,100440.25
2022-12-15T01:04:23.762Z,100441.97
2022-12-15T01:07:44.930Z,100453.28
2022-12-15T01:11:10.560Z,100458.16
2022-12-15T01:14:32.210Z,100462.66
2022-12-15T01:17:54.418Z,100471.88
2022-12-15T01:20:59.412Z,100483.09
2022-12-15T01:24:02.929Z,100481.50
2022-12-15T01:27:06.678Z,100474.78
2022-12-15T01:30:13.993Z,100470.78
2022-12-15T01:33:20.669Z,100469.22
2022-12-15T01:36:24.214Z,100462.97
2022-12-15T01:39:48.033Z,100462.81
2022-12-15T01:42:52.338Z,100491.88
2022-12-15T01:46:01.898Z,100494.66
2022-12-15T01:49:18.401Z,100487.13
2022-12-15T01:52:22.047Z,100483.81
2022-12-15T01:55:31.526Z,100485.47
2022-12-15T01:58:35.612Z,100505.03
2022-12-15T02:01:40.378Z,100508.41
2022-12-15T02:04:47.442Z,100506.66
2022-12-15T02:07:51.052Z,100504.03
2022-12-15T02:11:25.607Z,100500.06
2022-12-15T02:14:54.707Z,100501.75
2022-12-15T02:18:14.497Z,100505.00
2022-12-15T02:21:26.122Z,100513.63
2022-12-15T02:25:09.662Z,100514.19
2022-12-15T02:28:21.175Z,100509.03
2022-12-15T02:31:50.945Z,100509.78
2022-12-15T02:35:04.219Z,100514.97
2022-12-15T02:38:09.885Z,100518.22
2022-12-15T02:41:36.885Z,100512.09
2022-12-15T02:44:45.856Z,100519.88
2022-12-15T02:48:09.891Z,100514.75
2022-12-15T02:51:32.957Z,100503.72
2022-12-15T02:55:02.722Z,100506.41
2022-12-15T02:58:20.304Z,100518.22
2022-12-15T03:01:34.669Z,100512.34
2022-12-15T03:04:41.081Z,100510.66
2022-12-15T03:07:45.118Z,100509.78
2022-12-15T03:10:55.832Z,100511.63
2022-12-15T03:13:59.467Z,100513.41
2022-12-15T03:17:04.156Z,100516.31
2022-12-15T03:20:12.100Z,100511.44
2022-12-15T03:23:15.838Z,100518.88
2022-12-15T03:26:19.376Z,100526.06
2022-12-15T03:29:23.030Z,100528.88
2022-12-15T03:32:26.879Z,100522.78
2022-12-15T03:35:33.827Z,100519.41
2022-12-15T03:38:37.407Z,100532.16
2022-12-15T03:41:41.749Z,100533.00
2022-12-15T03:44:45.480Z,100533.84
2022-12-15T03:47:50.713Z,100541.38
2022-12-15T03:50:55.685Z,100522.88
2022-12-15T03:53:59.756Z,100528.16
2022-12-15T03:57:03.708Z,100533.06
2022-12-15T04:00:09.324Z,100531.44
2022-12-15T04:03:13.281Z,100529.56
2022-12-15T04:06:18.274Z,100543.03
2022-12-15T04:09:21.966Z,100537.56
2022-12-15T04:12:25.570Z,100542.22
2022-12-15T04:15:29.857Z,100547.94
2022-12-15T04:18:34.834Z,100558.94
2022-12-15T04:21:39.889Z,100559.88
2022-12-15T04:25:00.689Z,100563.88
2022-12-15T04:28:22.821Z,100561.25
2022-12-15T04:31:48.693Z,100556.75
2022-12-15T04:35:09.654Z,100564.47
2022-12-15T04:38:32.316Z,100566.09
2022-12-15T04:41:53.879Z,100563.59
2022-12-15T04:45:21.319Z,100566.94
2022-12-15T04:48:42.102Z,100564.53
2022-12-15T04:52:02.835Z,100565.47
2022-12-15T04:55:26.698Z,100567.88
2022-12-15T04:58:47.772Z,100565.59
2022-12-15T05:02:09.063Z,100571.03
2022-12-15T05:05:30.046Z,100570.06
2022-12-15T05:08:51.018Z,100580.22
2022-12-15T05:12:13.513Z,100578.72
2022-12-15T05:15:42.120Z,100585.16
2022-12-15T05:19:03.493Z,100587.53
2022-12-15T05:22:24.644Z,100583.31
2022-12-15T05:25:45.623Z,100586.50
2022-12-15T05:29:08.311Z,100597.38
2022-12-15T05:32:13.268Z,100601.41
2022-12-15T05:35:17.209Z,100595.59
2022-12-15T05:38:20.776Z,100600.03
2022-12-15T05:41:24.611Z,100594.06
2022-12-15T05:44:30.275Z,100597.38
2022-12-15T05:47:33.841Z,100600.69
2022-12-15T05:50:37.463Z,100599.19
2022-12-15T05:53:43.629Z,100595.72
2022-12-15T05:56:50.360Z,100598.31
2022-12-15T05:59:55.802Z,100605.16
2022-12-15T06:03:00.327Z,100596.69
2022-12-15T06:06:05.450Z,100602.53
2022-12-15T06:09:09.780Z,100602.28
2022-12-15T06:12:13.391Z,100610.06
2022-12-15T06:15:18.526Z,100606.38
2022-12-15T06:18:22.049Z,100615.28
2022-12-15T06:21:28.922Z,100618.72
2022-12-15T06:24:32.473Z,100623.66
2022-12-15T06:27:38.715Z,100618.28
2022-12-15T06:30:43.727Z,100626.19
2022-12-15T06:33:47.440Z,100632.28
2022-12-15T06:36:52.059Z,100640.00
2022-12-15T06:39:55.964Z,100644.53
2022-12-15T06:42:59.588Z,100658.50
2022-12-15T06:46:05.917Z,100655.75
2022-12-15T06:49:10.506Z,100655.22
2022-12-15T06:52:14.165Z,100656.66
2022-12-15T06:55:17.981Z,100662.53
2022-12-15T06:58:21.645Z,100658.28
2022-12-15T07:01:28.023Z,100661.97
2022-12-15T07:04:34.206Z,100660.34
2022-12-15T07:07:37.910Z,100661.19
2022-12-15T07:10:42.413Z,100664.59
2022-12-15T07:13:49.512Z,100674.09
2022-12-15T07:16:54.489Z,100679.25
2022-12-15T07:19:58.078Z,100680.84
2022-12-15T07:23:07.853Z,100684.28
2022-12-15T07:26:12.410Z,100696.25
2022-12-15T07:29:21.286Z,100699.59
2022-12-15T07:32:28.411Z,100694.72
2022-12-15T07:35:32.208Z,100697.31
2022-12-15T07:38:36.852Z,100710.22
2022-12-15T07:41:41.395Z,100701.75
2022-12-15T07:44:45.024Z,100691.72
2022-12-15T07:47:55.104Z,100702.88
2022-12-15T07:51:07.347Z,100701.34
2022-12-15T07:54:12.594Z,100698.94
2022-12-15T07:57:16.320Z,100708.22
2022-12-15T08:00:21.068Z,100711.75
2022-12-15T08:03:26.208Z,100717.94
2022-12-15T08:06:30.164Z,100719.84
2022-12-15T08:09:34.126Z,100718.63
2022-12-15T08:12:37.754Z,100732.09
2022-12-15T08:15:42.664Z,100738.19
2022-12-15T08:18:49.324Z,100740.66
2022-12-15T08:21:53.309Z,100742.75
2022-12-15T08:24:56.883Z,100740.59
2022-12-15T08:28:00.696Z,100741.09
2022-12-15T08:31:05.297Z,100729.75
2022-12-15T08:34:12.099Z,100730.94
2022-12-15T08:37:15.967Z,100726.22
2022-12-15T08:40:19.675Z,100735.19
2022-12-15T08:43:25.102Z,100725.44
2022-12-15T08:46:31.626Z,100729.97
2022-12-15T08:49:36.725Z,100732.66
2022-12-15T08:52:55.316Z,100735.41
2022-12-15T08:56:07.642Z,100734.91
2022-12-15T08:59:11.265Z,100735.00
2022-12-15T09:02:15.127Z,100753.88
2022-12-15T09:05:20.292Z,100759.22
2022-12-15T09:08:23.894Z,100749.91
2022-12-15T09:11:29.591Z,100750.34
2022-12-15T09:14:33.303Z,100749.56
2022-12-15T09:17:36.878Z,100744.59
2022-12-15T09:20:41.810Z,100760.94
2022-12-15T09:23:50.644Z,100755.06
2022-12-15T09:26:54.191Z,100751.75
2022-12-15T09:29:58.074Z,100751.13
2022-12-15T09:33:01.837Z,100755.59
2022-12-15T09:36:08.372Z,100742.16
2022-12-15T09:39:12.503Z,100742.44
2022-12-15T09:42:27.844Z,100742.56
2022-12-15T09:45:44.788Z,100739.16
2022-12-15T09:48:52.401Z,100743.56
2022-12-15T09:52:10.740Z,100747.25
2022-12-15T09:55:23.155Z,100756.72
2022-12-15T09:58:45.442Z,100762.03
2022-12-15T10:02:14.774Z,100754.50
2022-12-15T10:06:07.313Z,100760.75
2022-12-15T10:09:03.651Z,100771.31
2022-12-15T10:12:15.542Z,100770.84
2022-12-15T10:15:30.833Z,100759.06
2022-12-15T10:18:43.009Z,100767.00
2022-12-15T10:21:50.369Z,100772.25
2022-12-15T10:25:11.901Z,100777.41
2022-12-15T10:28:51.041Z,100764.53
2022-12-15T10:32:01.706Z,100769.66
2022-12-15T10:35:14.130Z,100751.72
2022-12-15T10:38:27.346Z,100756.94
2022-12-15T10:41:34.807Z,100760.38
2022-12-15T10:44:41.775Z,100759.75
2022-12-15T10:48:02.512Z,100753.03
2022-12-15T10:51:19.304Z,100761.75
2022-12-15T10:54:24.852Z,100756.81
2022-12-15T10:57:33.587Z,100758.69
2022-12-15T11:00:38.428Z,100745.84
2022-12-15T11:03:42.451Z,100746.66
2022-12-15T11:06:46.131Z,100765.50
2022-12-15T11:09:51.127Z,100760.19
2022-12-15T11:13:11.686Z,100767.88
2022-12-15T11:16:20.873Z,100767.88
2022-12-15T11:19:40.362Z,100767.06
2022-12-15T11:22:53.185Z,100760.97
2022-12-15T11:26:06.785Z,100767.88
2022-12-15T11:29:28.850Z,100767.09
2022-12-15T11:32:38.907Z,100770.63
2022-12-15T11:36:10.556Z,100778.47
2022-12-15T11:39:35.027Z,100778.47
2022-12-15T11:42:56.631Z,100775.00
2022-12-15T11:46:21.586Z,100780.13
2022-12-15T11:49:59.957Z,100777.56
2022-12-15T11:53:31.939Z,100776.75
2022-12-15T11:56:43.846Z,100780.16
2022-12-15T12:00:06.818Z,100766.53
2022-12-15T12:03:32.499Z,100772.56
2022-12-15T12:06:52.032Z,100770.88
2022-12-15T12:10:15.357Z,100764.00
2022-12-15T12:13:29.967Z,100762.31
2022-12-15T12:16:42.686Z,100770.94
2022-12-15T12:19:53.760Z,100771.03
2022-12-15T12:23:06.782Z,100776.19
2022-12-15T12:26:21.182Z,100781.31
2022-12-15T12:29:34.051Z,100776.16
2022-12-15T12:32:51.548Z,100779.72
2022-12-15T12:36:04.411Z,100779.59
2022-12-15T12:39:19.075Z,100777.88
2022-12-15T12:42:35.745Z,100770.13
2022-12-15T12:45:50.262Z,100772.72
2022-12-15T12:49:00.105Z,100771.03
2022-12-15T12:52:18.072Z,100776.09
2022-12-15T12:55:38.923Z,100781.31
2022-12-15T12:58:42.911Z,100787.31
2022-12-15T13:01:46.601Z,100783.00
2022-12-15T13:05:04.518Z,100781.22
2022-12-15T13:08:51.687Z,100784.63
2022-12-15T13:12:20.585Z,100778.63
2022-12-15T13:15:40.894Z,100772.63
2022-12-15T13:19:05.670Z,100770.88
2022-12-15T13:22:26.005Z,100776.91
2022-12-15T13:26:13.751Z,100768.38
2022-12-15T13:29:23.807Z,100764.00
2022-12-15T13:32:38.980Z,100762.47
2022-12-15T13:35:44.875Z,100757.38
2022-12-15T13:38:56.489Z,100764.25
2022-12-15T13:42:47.290Z,100761.56
2022-12-15T13:46:03.357Z,100760.75
2022-12-15T13:49:16.742Z,100761.56
2022-12-15T13:53:08.480Z,100771.03
2022-12-15T13:56:08.750Z,100773.47
2022-12-15T13:59:27.365Z,100772.66
2022-12-15T14:02:33.406Z,100774.31
2022-12-15T14:05:39.068Z,100770.09
2022-12-15T14:08:43.603Z,100774.31
2022-12-15T14:11:53.643Z,100774.19
2022-12-15T14:14:59.302Z,100772.44
2022-12-15T14:18:03.895Z,100778.41
2022-12-15T14:21:21.122Z,100778.41
2022-12-15T14:24:38.606Z,100780.16
2022-12-15T14:27:43.367Z,100777.56
2022-12-15T14:30:50.457Z,100786.09
2022-12-15T14:34:07.449Z,100775.00
2022-12-15T14:37:20.702Z,100774.84
2022-12-15T14:40:28.852Z,100779.94
2022-12-15T14:43:39.947Z,100779.06
2022-12-15T14:46:49.431Z,100787.50
2022-12-15T14:49:57.382Z,100784.88
2022-12-15T14:53:07.051Z,100789.91
2022-12-15T14:56:29.987Z,100794.25
2022-12-15T14:59:36.022Z,100790.53
2022-12-15T15:02:41.271Z,100801.81
2022-12-15T15:05:46.837Z,100800.00
2022-12-15T15:08:54.250Z,100795.59
2022-12-15T15:12:03.095Z,100802.47
2022-12-15T15:15:15.427Z,100797.88
2022-12-15T15:18:26.875Z,100796.00
2022-12-15T15:21:35.227Z,100794.28
2022-12-15T15:24:39.624Z,100803.72
2022-12-15T15:27:43.899Z,100802.72
2022-12-15T15:30:51.736Z,100804.44
2022-12-15T15:34:01.950Z,100802.66
2022-12-15T15:37:17.863Z,100807.91
2022-12-15T15:40:22.227Z,100804.50
2022-12-15T15:43:27.751Z,100800.16
2022-12-15T15:46:34.453Z,100805.97
2022-12-15T15:49:39.767Z,100815.28
2022-12-15T15:52:45.603Z,100802.19
2022-12-15T15:55:52.329Z,100806.38
2022-12-15T15:58:56.007Z,100801.44
2022-12-15T16:02:00.591Z,100801.19
2022-12-15T16:05:07.269Z,100809.44
2022-12-15T16:08:18.376Z,100805.06
2022-12-15T16:11:25.319Z,100795.84
2022-12-15T16:14:28.942Z,100798.16
2022-12-15T16:17:33.095Z,100802.28
2022-12-15T16:20:40.804Z,100801.31
2022-12-15T16:23:47.448Z,100807.25
2022-12-15T16:26:52.817Z,100806.31
2022-12-15T16:29:57.156Z,100802.81
2022-12-15T16:33:02.292Z,100810.53
2022-12-15T16:36:14.259Z,100812.19
2022-12-15T16:39:28.158Z,100809.34
2022-12-15T16:42:31.744Z,100809.28
2022-12-15T16:45:35.860Z,100816.84
2022-12-15T16:48:39.917Z,100815.41
2022-12-15T16:51:49.094Z,100819.66
2022-12-15T16:54:52.883Z,100825.44
2022-12-15T16:58:01.169Z,100829.72
2022-12-15T17:01:05.509Z,100823.66
2022-12-15T17:04:09.200Z,100824.50
2022-12-15T17:07:20.318Z,100826.75
2022-12-15T17:10:28.170Z,100824.44
2022-12-15T17:13:43.753Z,100826.81
2022-12-15T17:16:49.655Z,100830.97
2022-12-15T17:20:27.445Z,100838.88
2022-12-15T17:23:22.915Z,100836.97
2022-12-15T17:26:30.373Z,100840.44
2022-12-15T17:29:34.982Z,100837.97
2022-12-15T17:32:38.518Z,100836.31
2022-12-15T17:35:42.195Z,100840.53
2022-12-15T17:38:47.547Z,100843.75
2022-12-15T17:42:00.070Z,100837.97
2022-12-15T17:45:17.113Z,100847.84
2022-12-15T17:48:21.649Z,100845.03
2022-12-15T17:51:25.401Z,100843.56
2022-12-15T17:54:30.391Z,100848.50
2022-12-15T17:57:33.965Z,100853.47
2022-12-15T18:00:38.137Z,100857.66
2022-12-15T18:03:42.059Z,100849.34
2022-12-15T18:06:46.116Z,100858.59
2022-12-15T18:09:53.212Z,100860.00
2022-12-15T18:12:57.125Z,100854.91
2022-12-15T18:16:02.647Z,100857.53
2022-12-15T18:19:06.915Z,100861.66
2022-12-15T18:22:20.478Z,100865.09
2022-12-15T18:25:28.619Z,100871.59
2022-12-15T18:28:35.588Z,100869.00
2022-12-15T18:31:39.395Z,100873.94
2022-12-15T18:34:43.232Z,100877.66
2022-12-15T18:37:47.929Z,100876.47
2022-12-15T18:40:57.192Z,100882.19
2022-12-15T18:44:00.800Z,100882.94
2022-12-15T18:47:15.907Z,100886.25
2022-12-15T18:50:23.235Z,100894.75
2022-12-15T18:53:31.557Z,100897.19
2022-12-15T18:56:37.239Z,100899.63
2022-12-15T18:59:40.760Z,100909.81
2022-12-15T19:02:44.952Z,100913.31
2022-12-15T19:05:49.608Z,100920.00
2022-12-15T19:08:53.640Z,100918.38
2022-12-15T19:12:16.227Z,100922.75
2022-12-15T19:15:21.680Z,100939.00
2022-12-15T19:18:43.922Z,100934.69
2022-12-15T19:22:04.854Z,100934.91
2022-12-15T19:25:11.917Z,100934.72
2022-12-15T19:28:22.076Z,100939.06
2022-12-15T19:31:25.873Z,100943.00
2022-12-15T19:34:29.439Z,100964.91
2022-12-15T19:37:33.514Z,100960.69
2022-12-15T19:40:38.801Z,100962.50
2022-12-15T19:43:44.634Z,100963.91
2022-12-15T19:46:48.412Z,100966.69
2022-12-15T19:49:52.917Z,100973.41
2022-12-15T19:53:02.305Z,100968.34
2022-12-15T19:56:06.514Z,100969.09
2022-12-15T19:59:22.353Z,100964.81
2022-12-15T20:02:26.623Z,100968.94
2022-12-15T20:05:30.531Z,100977.72
2022-12-15T20:08:39.028Z,100981.44
2022-12-15T20:11:43.312Z,100988.78
2022-12-15T20:14:48.729Z,100988.09
2022-12-15T20:17:56.453Z,100994.38
2022-12-15T20:21:01.561Z,100993.53
2022-12-15T20:24:13.648Z,100990.38
2022-12-15T20:27:20.350Z,100995.44
2022-12-15T20:30:28.535Z,100986.00
2022-12-15T20:33:32.559Z,100981.84
2022-12-15T20:36:36.548Z,100976.03
2022-12-15T20:39:41.490Z,100982.19
2022-12-15T20:42:45.291Z,100986.75
2022-12-15T20:46:01.016Z,100986.09
2022-12-15T20:49:05.749Z,100981.06
2022-12-15T20:52:19.679Z,100979.19
2022-12-15T20:55:23.796Z,100982.38
2022-12-15T20:58:32.898Z,100985.66
2022-12-15T21:01:40.098Z,100979.72
2022-12-15T21:04:43.826Z,100979.69
2022-12-15T21:07:48.787Z,100972.97
2022-12-15T21:10:53.545Z,100974.75
2022-12-15T21:14:04.180Z,100976.63
2022-12-15T21:17:15.828Z,100974.00
2022-12-15T21:20:19.716Z,100969.72
2022-12-15T21:23:28.468Z,100972.16
2022-12-15T21:26:32.262Z,100972.00
2022-12-15T21:29:37.029Z,100973.44
2022-12-15T21:32:42.010Z,100972.53
2022-12-15T21:35:49.022Z,100968.16
2022-12-15T21:38:53.562Z,100977.22
2022-12-15T21:42:02.170Z,100972.59
2022-12-15T21:45:15.604Z,100973.28
2022-12-15T21:48:38.127Z,100969.00
2022-12-15T21:51:45.370Z,100976.63
2022-12-15T21:54:49.221Z,100980.84
2022-12-15T21:57:55.099Z,100983.97
2022-12-15T22:01:01.208Z,100979.50
2022-12-15T22:04:17.958Z,100987.97
2022-12-15T22:07:21.568Z,100988.66
2022-12-15T22:10:26.096Z,100994.53
2022-12-15T22:13:32.811Z,100993.47
2022-12-15T22:16:36.377Z,101006.13
2022-12-15T22:19:41.493Z,101012.97
2022-12-15T22:22:45.238Z,101012.88
2022-12-15T22:25:55.386Z,101027.25
2022-12-15T22:29:02.775Z,101037.50
2022-12-15T22:32:14.050Z,101039.13
2022-12-15T22:35:22.032Z,101041.69
2022-12-15T22:38:26.100Z,101035.59
2022-12-15T22:41:29.911Z,101040.78
2022-12-15T22:44:38.046Z,101038.06
2022-12-15T22:47:41.669Z,101039.63
2022-12-15T22:50:46.933Z,101032.66
2022-12-15T22:53:51.758Z,101035.69
2022-12-15T22:57:01.712Z,101034.72
2022-12-15T23:00:11.689Z,101035.69
2022-12-15T23:03:15.350Z,101038.00
2022-12-15T23:06:21.788Z,101044.47
2022-12-15T23:09:25.497Z,101051.31
2022-12-15T23:12:28.069Z,101048.69
2022-12-15T23:15:50.706Z,101055.47
2022-12-15T23:18:57.097Z,101060.25
2022-12-15T23:22:02.144Z,101063.59
2022-12-15T23:25:07.395Z,101061.16
2022-12-15T23:28:11.870Z,101064.50
2022-12-15T23:31:15.642Z,101071.28
2022-12-15T23:34:19.287Z,101077.16
2022-12-15T23:37:24.478Z,101072.81
2022-12-15T23:40:28.035Z,101070.25
2022-12-15T23:43:34.860Z,101077.06
2022-12-15T23:46:39.203Z,101072.72
2022-12-15T23:49:42.865Z,101073.03
2022-12-15T23:52:51.263Z,101078.25
2022-12-15T23:55:55.587Z,101088.75
2022-12-15T23:59:00.588Z,101078.69
